Kezdőlap
METAR-TAF:

METAR-TAF

Repülőterek :

Beckley, Nyugat-Virginia, Amerikai Egyesült Államok

földrajzi szélesség: 37-47-42N, földrajzi hosszúság: 081-07-29W, magasság: 763 m

Jelenlegi meteorológiai megfigyelések

A jelentés 56 perccel ezelõtt készült, 08:51 UTC
Szélcsend
Hőmérséklet 16°C
Páratartalom 82%
Légköri nyomás 1017 hPa
Látótávolság: 16.1 km
Derült ég

METAR: KBKW 140851Z AUTO 00000KT 10SM CLR 16/13 A3004 RMK AO2 SLP140 T01560133 56003 $

Idő: 05:47 (09:47 UTC)

Előrejelzés

A jelentés 54 perccel ezelõtt készült, 08:53 UTC
Az előrejelzés 14-én 09 óra UTC és 15-én 06 óra UTC között érvényes
Különbözõ irányokból fújó szél 3 kt
Látótávolság: 10 km
Derült ég
14-én 1500 órától UTC szerint
Nyugati szél 7 kt
Látótávolság: 10 km
Szórványos felhőzet 3500 lábon

TAF: KBKW 140853Z 1409/1506 VRB03KT P6SM SKC FM141500 28007KT P6SM SCT035

Meteorológiai megfigyelések és előrejelzések több, mint 4000 repülőtéren (METAR és TAF jelentéseket).

A térképen piros és sárga pontok jelzik az elérhető meteorológiai állomásokat.

Mozgassa az egeret a pont fölött, hogy megjelenjen az állomás neve.

Azután kattintson az időjárási megfigyelések és előrejelzések megtekintéséhez.

A térkép megváltoztatása: kattintson a fekete keresztel jelölt zöld gombra ráközelítéshez, a vonallal jelölt zöld gombra távolításhoz, vagy a zöld nyilakra a szomszédos térképek eléréséhez.


METAR-TAF: